sensor_id;sensor_type;location;lat;lon;timestamp;P1;durP1;ratioP1;P2;durP2;ratioP2
78995;SDS011;68401;47.192;-1.552;2023-09-30T00:01:17;15.48;;;7.15;;
78995;SDS011;68401;47.192;-1.552;2023-09-30T00:03:43;14.60;;;6.13;;
78995;SDS011;68401;47.192;-1.552;2023-09-30T00:06:09;18.20;;;6.25;;
78995;SDS011;68401;47.192;-1.552;2023-09-30T00:08:34;14.77;;;7.07;;
78995;SDS011;68401;47.192;-1.552;2023-09-30T00:11:04;14.98;;;6.30;;
78995;SDS011;68401;47.192;-1.552;2023-09-30T00:13:30;15.23;;;6.82;;
78995;SDS011;68401;47.192;-1.552;2023-09-30T00:15:56;13.27;;;6.50;;
78995;SDS011;68401;47.192;-1.552;2023-09-30T00:18:22;16.15;;;6.43;;
78995;SDS011;68401;47.192;-1.552;2023-09-30T00:20:48;14.40;;;5.82;;
78995;SDS011;68401;47.192;-1.552;2023-09-30T00:23:13;18.08;;;7.30;;
78995;SDS011;68401;47.192;-1.552;2023-09-30T00:25:39;17.73;;;6.95;;
78995;SDS011;68401;47.192;-1.552;2023-09-30T00:28:04;14.50;;;6.22;;
78995;SDS011;68401;47.192;-1.552;2023-09-30T00:30:30;18.13;;;7.38;;
78995;SDS011;68401;47.192;-1.552;2023-09-30T00:32:55;14.60;;;5.95;;
78995;SDS011;68401;47.192;-1.552;2023-09-30T00:35:21;14.77;;;6.30;;
78995;SDS011;68401;47.192;-1.552;2023-09-30T00:37:46;12.82;;;6.75;;
78995;SDS011;68401;47.192;-1.552;2023-09-30T00:40:13;18.92;;;6.72;;
78995;SDS011;68401;47.192;-1.552;2023-09-30T00:42:38;14.75;;;6.28;;
78995;SDS011;68401;47.192;-1.552;2023-09-30T00:45:04;17.60;;;7.28;;
78995;SDS011;68401;47.192;-1.552;2023-09-30T00:47:30;14.18;;;7.10;;
78995;SDS011;68401;47.192;-1.552;2023-09-30T00:49:56;18.10;;;7.18;;
78995;SDS011;68401;47.192;-1.552;2023-09-30T00:52:21;16.08;;;7.13;;
78995;SDS011;68401;47.192;-1.552;2023-09-30T00:54:47;19.05;;;7.57;;
78995;SDS011;68401;47.192;-1.552;2023-09-30T00:57:14;15.95;;;7.22;;
78995;SDS011;68401;47.192;-1.552;2023-09-30T00:59:40;16.95;;;6.65;;
78995;SDS011;68401;47.192;-1.552;2023-09-30T01:02:05;14.57;;;7.25;;
78995;SDS011;68401;47.192;-1.552;2023-09-30T01:04:31;15.93;;;6.93;;
78995;SDS011;68401;47.192;-1.552;2023-09-30T01:06:57;17.48;;;7.15;;
78995;SDS011;68401;47.192;-1.552;2023-09-30T01:09:22;11.85;;;5.97;;
78995;SDS011;68401;47.192;-1.552;2023-09-30T01:11:48;12.52;;;6.30;;
78995;SDS011;68401;47.192;-1.552;2023-09-30T01:16:55;14.80;;;6.18;;
78995;SDS011;68401;47.192;-1.552;2023-09-30T01:19:21;17.98;;;6.53;;
78995;SDS011;68401;47.192;-1.552;2023-09-30T01:21:59;18.30;;;6.88;;
78995;SDS011;68401;47.192;-1.552;2023-09-30T01:24:30;15.35;;;7.32;;
78995;SDS011;68401;47.192;-1.552;2023-09-30T01:26:56;14.18;;;6.15;;
78995;SDS011;68401;47.192;-1.552;2023-09-30T01:29:22;10.82;;;5.88;;
78995;SDS011;68401;47.192;-1.552;2023-09-30T01:31:48;18.15;;;6.35;;
78995;SDS011;68401;47.192;-1.552;2023-09-30T01:34:15;12.55;;;5.88;;
78995;SDS011;68401;47.192;-1.552;2023-09-30T01:36:41;14.88;;;6.03;;
78995;SDS011;68401;47.192;-1.552;2023-09-30T01:39:07;13.32;;;5.78;;
78995;SDS011;68401;47.192;-1.552;2023-09-30T01:41:35;12.98;;;6.25;;
78995;SDS011;68401;47.192;-1.552;2023-09-30T01:44:02;14.82;;;6.75;;
78995;SDS011;68401;47.192;-1.552;2023-09-30T01:46:27;15.55;;;6.72;;
78995;SDS011;68401;47.192;-1.552;2023-09-30T01:48:53;14.77;;;6.72;;
78995;SDS011;68401;47.192;-1.552;2023-09-30T01:51:18;13.25;;;6.38;;
78995;SDS011;68401;47.192;-1.552;2023-09-30T01:53:43;15.68;;;6.20;;
78995;SDS011;68401;47.192;-1.552;2023-09-30T01:56:09;16.85;;;6.85;;
78995;SDS011;68401;47.192;-1.552;2023-09-30T01:58:34;19.88;;;6.88;;
78995;SDS011;68401;47.192;-1.552;2023-09-30T02:01:03;15.82;;;6.57;;
78995;SDS011;68401;47.192;-1.552;2023-09-30T02:03:29;16.08;;;6.85;;
78995;SDS011;68401;47.192;-1.552;2023-09-30T02:05:55;15.98;;;7.10;;
78995;SDS011;68401;47.192;-1.552;2023-09-30T02:08:21;14.13;;;7.50;;
78995;SDS011;68401;47.192;-1.552;2023-09-30T02:10:47;13.80;;;6.63;;
78995;SDS011;68401;47.192;-1.552;2023-09-30T02:13:13;15.85;;;7.03;;
78995;SDS011;68401;47.192;-1.552;2023-09-30T02:15:42;16.95;;;7.72;;
78995;SDS011;68401;47.192;-1.552;2023-09-30T02:18:07;17.45;;;9.25;;
78995;SDS011;68401;47.192;-1.552;2023-09-30T02:20:34;12.63;;;6.22;;
78995;SDS011;68401;47.192;-1.552;2023-09-30T02:22:59;15.52;;;6.47;;
78995;SDS011;68401;47.192;-1.552;2023-09-30T02:25:27;15.90;;;6.63;;
78995;SDS011;68401;47.192;-1.552;2023-09-30T02:27:54;15.82;;;7.28;;
78995;SDS011;68401;47.192;-1.552;2023-09-30T02:30:19;17.30;;;6.65;;
78995;SDS011;68401;47.192;-1.552;2023-09-30T02:32:46;12.38;;;6.57;;
78995;SDS011;68401;47.192;-1.552;2023-09-30T02:35:11;15.50;;;6.68;;
78995;SDS011;68401;47.192;-1.552;2023-09-30T02:37:37;14.45;;;6.70;;
78995;SDS011;68401;47.192;-1.552;2023-09-30T02:40:03;13.50;;;6.65;;
78995;SDS011;68401;47.192;-1.552;2023-09-30T02:42:34;11.13;;;5.72;;
78995;SDS011;68401;47.192;-1.552;2023-09-30T02:45:02;16.48;;;6.50;;
78995;SDS011;68401;47.192;-1.552;2023-09-30T02:47:28;12.27;;;6.45;;
78995;SDS011;68401;47.192;-1.552;2023-09-30T02:49:54;12.82;;;6.22;;
78995;SDS011;68401;47.192;-1.552;2023-09-30T02:52:21;14.05;;;6.70;;
78995;SDS011;68401;47.192;-1.552;2023-09-30T02:54:47;14.50;;;6.15;;
78995;SDS011;68401;47.192;-1.552;2023-09-30T02:57:12;13.77;;;6.00;;
78995;SDS011;68401;47.192;-1.552;2023-09-30T02:59:38;14.02;;;6.38;;
78995;SDS011;68401;47.192;-1.552;2023-09-30T03:02:05;14.73;;;6.30;;
78995;SDS011;68401;47.192;-1.552;2023-09-30T03:04:30;11.32;;;6.22;;
78995;SDS011;68401;47.192;-1.552;2023-09-30T03:06:55;12.98;;;6.47;;
78995;SDS011;68401;47.192;-1.552;2023-09-30T03:09:21;15.38;;;7.40;;
78995;SDS011;68401;47.192;-1.552;2023-09-30T03:11:47;13.52;;;6.10;;
78995;SDS011;68401;47.192;-1.552;2023-09-30T03:14:13;14.27;;;6.15;;
78995;SDS011;68401;47.192;-1.552;2023-09-30T03:16:39;14.25;;;6.93;;
78995;SDS011;68401;47.192;-1.552;2023-09-30T03:19:06;16.38;;;6.57;;
78995;SDS011;68401;47.192;-1.552;2023-09-30T03:21:33;13.07;;;6.88;;
78995;SDS011;68401;47.192;-1.552;2023-09-30T03:26:29;14.60;;;6.72;;
78995;SDS011;68401;47.192;-1.552;2023-09-30T03:28:55;16.00;;;7.47;;
78995;SDS011;68401;47.192;-1.552;2023-09-30T03:31:21;15.05;;;6.70;;
78995;SDS011;68401;47.192;-1.552;2023-09-30T03:33:47;12.40;;;5.60;;
78995;SDS011;68401;47.192;-1.552;2023-09-30T03:36:13;15.60;;;6.82;;
78995;SDS011;68401;47.192;-1.552;2023-09-30T03:38:40;14.50;;;6.13;;
78995;SDS011;68401;47.192;-1.552;2023-09-30T03:41:06;12.25;;;6.93;;
78995;SDS011;68401;47.192;-1.552;2023-09-30T03:43:33;13.63;;;6.65;;
78995;SDS011;68401;47.192;-1.552;2023-09-30T03:46:01;17.33;;;6.93;;
78995;SDS011;68401;47.192;-1.552;2023-09-30T03:48:27;12.02;;;5.97;;
78995;SDS011;68401;47.192;-1.552;2023-09-30T03:50:52;17.05;;;7.50;;
78995;SDS011;68401;47.192;-1.552;2023-09-30T03:53:18;13.15;;;6.30;;
78995;SDS011;68401;47.192;-1.552;2023-09-30T03:55:44;15.73;;;5.82;;
78995;SDS011;68401;47.192;-1.552;2023-09-30T03:58:10;11.82;;;6.30;;
78995;SDS011;68401;47.192;-1.552;2023-09-30T04:00:37;14.05;;;6.15;;
78995;SDS011;68401;47.192;-1.552;2023-09-30T04:03:04;13.32;;;5.72;;
78995;SDS011;68401;47.192;-1.552;2023-09-30T04:05:30;18.23;;;7.28;;
78995;SDS011;68401;47.192;-1.552;2023-09-30T04:07:59;14.43;;;5.68;;
78995;SDS011;68401;47.192;-1.552;2023-09-30T04:10:24;14.38;;;6.70;;
78995;SDS011;68401;47.192;-1.552;2023-09-30T04:12:50;16.05;;;5.78;;
78995;SDS011;68401;47.192;-1.552;2023-09-30T04:15:17;12.70;;;7.13;;
78995;SDS011;68401;47.192;-1.552;2023-09-30T04:17:42;15.65;;;6.25;;
78995;SDS011;68401;47.192;-1.552;2023-09-30T04:20:08;13.13;;;6.53;;
78995;SDS011;68401;47.192;-1.552;2023-09-30T04:22:41;12.48;;;6.00;;
78995;SDS011;68401;47.192;-1.552;2023-09-30T04:25:11;14.45;;;5.78;;
78995;SDS011;68401;47.192;-1.552;2023-09-30T04:27:37;9.45;;;5.15;;
78995;SDS011;68401;47.192;-1.552;2023-09-30T04:30:03;13.63;;;5.85;;
78995;SDS011;68401;47.192;-1.552;2023-09-30T04:32:33;13.23;;;6.75;;
78995;SDS011;68401;47.192;-1.552;2023-09-30T04:35:01;13.50;;;5.90;;
78995;SDS011;68401;47.192;-1.552;2023-09-30T04:37:28;11.85;;;5.28;;
78995;SDS011;68401;47.192;-1.552;2023-09-30T04:39:53;15.32;;;5.93;;
78995;SDS011;68401;47.192;-1.552;2023-09-30T04:42:19;13.60;;;6.03;;
78995;SDS011;68401;47.192;-1.552;2023-09-30T04:44:44;12.20;;;5.75;;
78995;SDS011;68401;47.192;-1.552;2023-09-30T04:47:10;15.43;;;6.22;;
78995;SDS011;68401;47.192;-1.552;2023-09-30T04:49:35;13.50;;;5.78;;
78995;SDS011;68401;47.192;-1.552;2023-09-30T04:52:01;12.65;;;6.13;;
78995;SDS011;68401;47.192;-1.552;2023-09-30T04:54:26;11.35;;;6.05;;
78995;SDS011;68401;47.192;-1.552;2023-09-30T04:56:51;12.18;;;6.10;;
78995;SDS011;68401;47.192;-1.552;2023-09-30T04:59:17;14.90;;;6.47;;
78995;SDS011;68401;47.192;-1.552;2023-09-30T05:01:43;14.60;;;6.10;;
78995;SDS011;68401;47.192;-1.552;2023-09-30T05:04:08;14.25;;;6.25;;
78995;SDS011;68401;47.192;-1.552;2023-09-30T05:06:34;11.32;;;5.25;;
78995;SDS011;68401;47.192;-1.552;2023-09-30T05:08:59;13.60;;;6.32;;
78995;SDS011;68401;47.192;-1.552;2023-09-30T05:11:25;12.48;;;5.43;;
78995;SDS011;68401;47.192;-1.552;2023-09-30T05:13:50;13.50;;;6.78;;
78995;SDS011;68401;47.192;-1.552;2023-09-30T05:16:16;12.95;;;5.65;;
78995;SDS011;68401;47.192;-1.552;2023-09-30T05:18:42;12.48;;;6.50;;
78995;SDS011;68401;47.192;-1.552;2023-09-30T05:21:08;14.98;;;5.35;;
78995;SDS011;68401;47.192;-1.552;2023-09-30T05:23:33;12.80;;;5.68;;
78995;SDS011;68401;47.192;-1.552;2023-09-30T05:25:59;11.52;;;5.35;;
78995;SDS011;68401;47.192;-1.552;2023-09-30T05:28:25;10.63;;;5.93;;
78995;SDS011;68401;47.192;-1.552;2023-09-30T05:30:52;12.68;;;5.43;;
78995;SDS011;68401;47.192;-1.552;2023-09-30T05:33:18;15.38;;;7.00;;
78995;SDS011;68401;47.192;-1.552;2023-09-30T05:35:43;15.45;;;7.65;;
78995;SDS011;68401;47.192;-1.552;2023-09-30T05:38:09;14.82;;;6.50;;
78995;SDS011;68401;47.192;-1.552;2023-09-30T05:40:35;13.23;;;6.82;;
78995;SDS011;68401;47.192;-1.552;2023-09-30T05:43:00;16.75;;;6.85;;
78995;SDS011;68401;47.192;-1.552;2023-09-30T05:45:27;15.30;;;8.55;;
78995;SDS011;68401;47.192;-1.552;2023-09-30T05:47:53;12.70;;;6.68;;
78995;SDS011;68401;47.192;-1.552;2023-09-30T05:50:24;13.68;;;6.75;;
78995;SDS011;68401;47.192;-1.552;2023-09-30T05:52:51;14.80;;;7.18;;
78995;SDS011;68401;47.192;-1.552;2023-09-30T05:55:17;15.82;;;6.72;;
78995;SDS011;68401;47.192;-1.552;2023-09-30T05:57:49;12.95;;;6.45;;
78995;SDS011;68401;47.192;-1.552;2023-09-30T06:00:14;14.32;;;6.40;;
78995;SDS011;68401;47.192;-1.552;2023-09-30T06:02:46;14.95;;;7.97;;
78995;SDS011;68401;47.192;-1.552;2023-09-30T06:05:12;14.13;;;6.63;;
78995;SDS011;68401;47.192;-1.552;2023-09-30T06:07:40;15.38;;;7.00;;
78995;SDS011;68401;47.192;-1.552;2023-09-30T06:10:06;18.08;;;7.55;;
78995;SDS011;68401;47.192;-1.552;2023-09-30T06:12:32;14.13;;;6.68;;
78995;SDS011;68401;47.192;-1.552;2023-09-30T06:14:57;18.50;;;7.72;;
78995;SDS011;68401;47.192;-1.552;2023-09-30T06:17:23;11.90;;;5.97;;
78995;SDS011;68401;47.192;-1.552;2023-09-30T06:19:49;13.75;;;6.43;;
78995;SDS011;68401;47.192;-1.552;2023-09-30T06:22:15;17.08;;;7.82;;
78995;SDS011;68401;47.192;-1.552;2023-09-30T06:24:41;11.90;;;5.78;;
78995;SDS011;68401;47.192;-1.552;2023-09-30T06:27:06;17.48;;;7.10;;
78995;SDS011;68401;47.192;-1.552;2023-09-30T06:29:32;18.02;;;6.63;;
78995;SDS011;68401;47.192;-1.552;2023-09-30T06:31:58;13.63;;;6.70;;
78995;SDS011;68401;47.192;-1.552;2023-09-30T06:34:24;15.73;;;6.40;;
78995;SDS011;68401;47.192;-1.552;2023-09-30T06:36:50;16.77;;;7.25;;
78995;SDS011;68401;47.192;-1.552;2023-09-30T06:39:17;19.15;;;7.18;;
78995;SDS011;68401;47.192;-1.552;2023-09-30T06:41:43;15.77;;;7.53;;
78995;SDS011;68401;47.192;-1.552;2023-09-30T06:44:08;18.58;;;7.15;;
78995;SDS011;68401;47.192;-1.552;2023-09-30T06:46:34;15.40;;;7.38;;
78995;SDS011;68401;47.192;-1.552;2023-09-30T06:48:59;15.23;;;7.15;;
78995;SDS011;68401;47.192;-1.552;2023-09-30T06:51:25;16.77;;;7.88;;
78995;SDS011;68401;47.192;-1.552;2023-09-30T06:53:51;12.48;;;7.45;;
78995;SDS011;68401;47.192;-1.552;2023-09-30T06:56:17;16.85;;;7.68;;
78995;SDS011;68401;47.192;-1.552;2023-09-30T06:58:43;18.15;;;8.10;;
78995;SDS011;68401;47.192;-1.552;2023-09-30T07:01:08;16.63;;;7.32;;
78995;SDS011;68401;47.192;-1.552;2023-09-30T07:03:33;15.75;;;7.88;;
78995;SDS011;68401;47.192;-1.552;2023-09-30T07:05:59;16.33;;;8.75;;
78995;SDS011;68401;47.192;-1.552;2023-09-30T07:08:27;14.07;;;8.05;;
78995;SDS011;68401;47.192;-1.552;2023-09-30T07:10:54;16.77;;;8.73;;
78995;SDS011;68401;47.192;-1.552;2023-09-30T07:13:21;19.42;;;8.70;;
78995;SDS011;68401;47.192;-1.552;2023-09-30T07:15:47;16.40;;;8.80;;
78995;SDS011;68401;47.192;-1.552;2023-09-30T07:18:12;15.98;;;8.57;;
78995;SDS011;68401;47.192;-1.552;2023-09-30T07:20:37;15.02;;;8.77;;
78995;SDS011;68401;47.192;-1.552;2023-09-30T07:23:03;16.48;;;8.27;;
78995;SDS011;68401;47.192;-1.552;2023-09-30T07:25:28;16.40;;;8.82;;
78995;SDS011;68401;47.192;-1.552;2023-09-30T07:27:57;15.52;;;9.10;;
78995;SDS011;68401;47.192;-1.552;2023-09-30T07:30:22;19.45;;;9.50;;
78995;SDS011;68401;47.192;-1.552;2023-09-30T07:32:48;19.48;;;8.90;;
78995;SDS011;68401;47.192;-1.552;2023-09-30T07:35:13;17.55;;;8.52;;
78995;SDS011;68401;47.192;-1.552;2023-09-30T07:37:40;18.02;;;8.77;;
78995;SDS011;68401;47.192;-1.552;2023-09-30T07:40:06;15.65;;;8.48;;
78995;SDS011;68401;47.192;-1.552;2023-09-30T07:42:32;14.50;;;8.43;;
78995;SDS011;68401;47.192;-1.552;2023-09-30T07:44:58;14.88;;;8.73;;
78995;SDS011;68401;47.192;-1.552;2023-09-30T07:47:24;15.95;;;8.48;;
78995;SDS011;68401;47.192;-1.552;2023-09-30T07:49:49;18.95;;;9.63;;
78995;SDS011;68401;47.192;-1.552;2023-09-30T07:52:15;16.90;;;9.18;;
78995;SDS011;68401;47.192;-1.552;2023-09-30T07:54:40;20.92;;;8.43;;
78995;SDS011;68401;47.192;-1.552;2023-09-30T07:57:06;16.02;;;7.82;;
78995;SDS011;68401;47.192;-1.552;2023-09-30T07:59:31;16.50;;;8.57;;
78995;SDS011;68401;47.192;-1.552;2023-09-30T08:01:58;18.83;;;8.27;;
78995;SDS011;68401;47.192;-1.552;2023-09-30T08:04:24;12.45;;;7.32;;
78995;SDS011;68401;47.192;-1.552;2023-09-30T08:06:50;15.18;;;8.50;;
78995;SDS011;68401;47.192;-1.552;2023-09-30T08:09:16;17.38;;;9.45;;
78995;SDS011;68401;47.192;-1.552;2023-09-30T08:11:43;16.45;;;8.38;;
78995;SDS011;68401;47.192;-1.552;2023-09-30T08:14:09;14.27;;;7.95;;
78995;SDS011;68401;47.192;-1.552;2023-09-30T08:16:35;14.10;;;8.70;;
78995;SDS011;68401;47.192;-1.552;2023-09-30T08:19:02;15.05;;;8.25;;
78995;SDS011;68401;47.192;-1.552;2023-09-30T08:21:28;15.57;;;7.88;;
78995;SDS011;68401;47.192;-1.552;2023-09-30T08:23:53;18.73;;;9.60;;
78995;SDS011;68401;47.192;-1.552;2023-09-30T08:26:19;16.63;;;8.27;;
78995;SDS011;68401;47.192;-1.552;2023-09-30T08:28:44;17.55;;;9.82;;
78995;SDS011;68401;47.192;-1.552;2023-09-30T08:31:10;15.75;;;9.13;;
78995;SDS011;68401;47.192;-1.552;2023-09-30T08:33:35;14.35;;;8.00;;
78995;SDS011;68401;47.192;-1.552;2023-09-30T08:36:09;13.70;;;7.93;;
78995;SDS011;68401;47.192;-1.552;2023-09-30T08:38:38;16.25;;;9.32;;
78995;SDS011;68401;47.192;-1.552;2023-09-30T08:41:05;14.73;;;8.10;;
78995;SDS011;68401;47.192;-1.552;2023-09-30T08:43:32;17.05;;;8.38;;
78995;SDS011;68401;47.192;-1.552;2023-09-30T08:46:03;15.70;;;8.18;;
78995;SDS011;68401;47.192;-1.552;2023-09-30T08:48:29;16.30;;;8.68;;
78995;SDS011;68401;47.192;-1.552;2023-09-30T08:50:58;14.48;;;7.90;;
78995;SDS011;68401;47.192;-1.552;2023-09-30T08:53:24;16.92;;;7.68;;
78995;SDS011;68401;47.192;-1.552;2023-09-30T08:55:53;15.38;;;7.65;;
78995;SDS011;68401;47.192;-1.552;2023-09-30T08:58:19;14.80;;;6.80;;
78995;SDS011;68401;47.192;-1.552;2023-09-30T09:00:47;14.30;;;6.50;;
78995;SDS011;68401;47.192;-1.552;2023-09-30T09:03:12;17.63;;;8.35;;
78995;SDS011;68401;47.192;-1.552;2023-09-30T09:05:38;10.80;;;6.15;;
78995;SDS011;68401;47.192;-1.552;2023-09-30T09:08:04;15.23;;;7.03;;
78995;SDS011;68401;47.192;-1.552;2023-09-30T09:10:30;12.38;;;6.65;;
78995;SDS011;68401;47.192;-1.552;2023-09-30T09:12:57;13.90;;;6.05;;
78995;SDS011;68401;47.192;-1.552;2023-09-30T09:15:27;17.52;;;7.03;;
78995;SDS011;68401;47.192;-1.552;2023-09-30T09:17:56;14.20;;;6.15;;
78995;SDS011;68401;47.192;-1.552;2023-09-30T09:20:23;15.63;;;6.32;;
78995;SDS011;68401;47.192;-1.552;2023-09-30T09:22:54;12.60;;;6.38;;
78995;SDS011;68401;47.192;-1.552;2023-09-30T09:25:21;13.43;;;5.78;;
78995;SDS011;68401;47.192;-1.552;2023-09-30T09:27:53;12.40;;;6.45;;
78995;SDS011;68401;47.192;-1.552;2023-09-30T09:33:05;12.90;;;5.80;;
78995;SDS011;68401;47.192;-1.552;2023-09-30T09:35:32;14.00;;;6.28;;
78995;SDS011;68401;47.192;-1.552;2023-09-30T09:40:34;13.38;;;6.10;;
78995;SDS011;68401;47.192;-1.552;2023-09-30T09:43:01;12.27;;;5.90;;
78995;SDS011;68401;47.192;-1.552;2023-09-30T09:45:30;13.93;;;6.20;;
78995;SDS011;68401;47.192;-1.552;2023-09-30T09:47:58;14.45;;;6.10;;
78995;SDS011;68401;47.192;-1.552;2023-09-30T09:50:24;12.55;;;6.40;;
78995;SDS011;68401;47.192;-1.552;2023-09-30T09:52:51;12.27;;;6.90;;
78995;SDS011;68401;47.192;-1.552;2023-09-30T09:55:21;12.52;;;6.10;;
78995;SDS011;68401;47.192;-1.552;2023-09-30T09:57:48;12.18;;;6.20;;
78995;SDS011;68401;47.192;-1.552;2023-09-30T10:00:15;13.20;;;6.72;;
78995;SDS011;68401;47.192;-1.552;2023-09-30T10:02:45;16.67;;;6.82;;
78995;SDS011;68401;47.192;-1.552;2023-09-30T10:05:11;12.25;;;5.82;;
78995;SDS011;68401;47.192;-1.552;2023-09-30T10:07:38;12.50;;;6.20;;
78995;SDS011;68401;47.192;-1.552;2023-09-30T10:10:07;13.45;;;5.90;;
78995;SDS011;68401;47.192;-1.552;2023-09-30T10:12:38;12.13;;;6.47;;
78995;SDS011;68401;47.192;-1.552;2023-09-30T10:20:30;13.90;;;7.07;;
78995;SDS011;68401;47.192;-1.552;2023-09-30T10:25:44;11.43;;;6.18;;
78995;SDS011;68401;47.192;-1.552;2023-09-30T10:38:57;12.07;;;5.93;;
78995;SDS011;68401;47.192;-1.552;2023-09-30T10:46:51;12.70;;;5.97;;
78995;SDS011;68401;47.192;-1.552;2023-09-30T10:51:49;11.93;;;6.47;;
78995;SDS011;68401;47.192;-1.552;2023-09-30T10:54:18;13.50;;;6.45;;
78995;SDS011;68401;47.192;-1.552;2023-09-30T10:56:50;14.55;;;6.40;;
78995;SDS011;68401;47.192;-1.552;2023-09-30T10:59:19;15.63;;;6.88;;
78995;SDS011;68401;47.192;-1.552;2023-09-30T11:01:45;12.73;;;6.15;;
78995;SDS011;68401;47.192;-1.552;2023-09-30T11:04:11;10.93;;;5.97;;
78995;SDS011;68401;47.192;-1.552;2023-09-30T11:06:39;13.40;;;5.60;;
78995;SDS011;68401;47.192;-1.552;2023-09-30T11:09:05;11.77;;;5.90;;
78995;SDS011;68401;47.192;-1.552;2023-09-30T11:11:40;12.85;;;6.47;;
78995;SDS011;68401;47.192;-1.552;2023-09-30T11:16:49;13.27;;;5.90;;
78995;SDS011;68401;47.192;-1.552;2023-09-30T11:19:15;14.52;;;7.55;;
78995;SDS011;68401;47.192;-1.552;2023-09-30T11:21:42;15.38;;;5.70;;
78995;SDS011;68401;47.192;-1.552;2023-09-30T11:24:10;13.50;;;6.43;;
78995;SDS011;68401;47.192;-1.552;2023-09-30T11:26:36;15.55;;;6.75;;
78995;SDS011;68401;47.192;-1.552;2023-09-30T11:29:09;11.85;;;5.57;;
78995;SDS011;68401;47.192;-1.552;2023-09-30T11:31:42;11.60;;;6.05;;
78995;SDS011;68401;47.192;-1.552;2023-09-30T11:34:09;13.05;;;6.47;;
78995;SDS011;68401;47.192;-1.552;2023-09-30T11:36:35;13.48;;;5.60;;
78995;SDS011;68401;47.192;-1.552;2023-09-30T11:39:02;13.27;;;6.20;;
78995;SDS011;68401;47.192;-1.552;2023-09-30T11:41:34;11.75;;;5.32;;
78995;SDS011;68401;47.192;-1.552;2023-09-30T11:49:24;11.95;;;5.47;;
78995;SDS011;68401;47.192;-1.552;2023-09-30T11:51:57;11.55;;;5.18;;
78995;SDS011;68401;47.192;-1.552;2023-09-30T11:54:31;13.05;;;5.72;;
78995;SDS011;68401;47.192;-1.552;2023-09-30T11:56:58;13.70;;;5.97;;
78995;SDS011;68401;47.192;-1.552;2023-09-30T11:59:24;13.25;;;5.72;;
78995;SDS011;68401;47.192;-1.552;2023-09-30T12:01:51;14.25;;;5.68;;
78995;SDS011;68401;47.192;-1.552;2023-09-30T12:04:17;12.30;;;5.93;;
78995;SDS011;68401;47.192;-1.552;2023-09-30T12:06:44;12.00;;;5.43;;
78995;SDS011;68401;47.192;-1.552;2023-09-30T12:09:11;10.73;;;4.85;;
78995;SDS011;68401;47.192;-1.552;2023-09-30T12:11:39;9.85;;;4.60;;
78995;SDS011;68401;47.192;-1.552;2023-09-30T12:14:08;8.98;;;5.00;;
78995;SDS011;68401;47.192;-1.552;2023-09-30T12:16:34;11.27;;;5.35;;
78995;SDS011;68401;47.192;-1.552;2023-09-30T12:19:00;10.50;;;4.78;;
78995;SDS011;68401;47.192;-1.552;2023-09-30T12:21:25;8.23;;;4.03;;
78995;SDS011;68401;47.192;-1.552;2023-09-30T12:23:51;8.88;;;4.28;;
78995;SDS011;68401;47.192;-1.552;2023-09-30T12:26:16;9.93;;;4.07;;
78995;SDS011;68401;47.192;-1.552;2023-09-30T12:28:42;8.02;;;3.85;;
78995;SDS011;68401;47.192;-1.552;2023-09-30T12:31:09;10.15;;;3.38;;
78995;SDS011;68401;47.192;-1.552;2023-09-30T12:33:35;9.85;;;4.25;;
78995;SDS011;68401;47.192;-1.552;2023-09-30T12:36:01;11.45;;;5.20;;
78995;SDS011;68401;47.192;-1.552;2023-09-30T12:38:27;8.75;;;4.82;;
78995;SDS011;68401;47.192;-1.552;2023-09-30T12:40:53;9.02;;;4.57;;
78995;SDS011;68401;47.192;-1.552;2023-09-30T12:43:20;16.50;;;8.25;;
78995;SDS011;68401;47.192;-1.552;2023-09-30T12:45:46;8.65;;;4.82;;
78995;SDS011;68401;47.192;-1.552;2023-09-30T12:48:12;9.82;;;4.60;;
78995;SDS011;68401;47.192;-1.552;2023-09-30T12:50:38;10.52;;;4.00;;
78995;SDS011;68401;47.192;-1.552;2023-09-30T12:53:03;10.50;;;5.30;;
78995;SDS011;68401;47.192;-1.552;2023-09-30T12:55:29;13.38;;;5.32;;
78995;SDS011;68401;47.192;-1.552;2023-09-30T12:57:54;10.10;;;4.53;;
78995;SDS011;68401;47.192;-1.552;2023-09-30T13:00:20;12.35;;;4.65;;
78995;SDS011;68401;47.192;-1.552;2023-09-30T13:02:47;13.63;;;5.28;;
78995;SDS011;68401;47.192;-1.552;2023-09-30T13:05:13;11.38;;;5.28;;
78995;SDS011;68401;47.192;-1.552;2023-09-30T13:07:39;10.05;;;4.93;;
78995;SDS011;68401;47.192;-1.552;2023-09-30T13:10:04;11.57;;;5.38;;
78995;SDS011;68401;47.192;-1.552;2023-09-30T13:12:31;9.52;;;5.03;;
78995;SDS011;68401;47.192;-1.552;2023-09-30T13:15:00;9.63;;;4.05;;
78995;SDS011;68401;47.192;-1.552;2023-09-30T13:17:25;11.18;;;4.78;;
78995;SDS011;68401;47.192;-1.552;2023-09-30T13:19:51;11.35;;;4.82;;
78995;SDS011;68401;47.192;-1.552;2023-09-30T13:22:19;10.50;;;4.13;;
78995;SDS011;68401;47.192;-1.552;2023-09-30T13:24:46;9.88;;;5.53;;
78995;SDS011;68401;47.192;-1.552;2023-09-30T13:27:11;10.23;;;4.80;;
78995;SDS011;68401;47.192;-1.552;2023-09-30T13:29:37;12.43;;;4.05;;
78995;SDS011;68401;47.192;-1.552;2023-09-30T13:32:03;10.68;;;4.88;;
78995;SDS011;68401;47.192;-1.552;2023-09-30T13:34:29;12.70;;;5.53;;
78995;SDS011;68401;47.192;-1.552;2023-09-30T13:36:55;11.80;;;5.20;;
78995;SDS011;68401;47.192;-1.552;2023-09-30T13:39:21;9.82;;;4.78;;
78995;SDS011;68401;47.192;-1.552;2023-09-30T13:41:46;11.32;;;5.35;;
78995;SDS011;68401;47.192;-1.552;2023-09-30T13:44:12;12.45;;;4.97;;
78995;SDS011;68401;47.192;-1.552;2023-09-30T13:46:38;11.32;;;4.93;;
78995;SDS011;68401;47.192;-1.552;2023-09-30T13:49:04;10.20;;;4.75;;
78995;SDS011;68401;47.192;-1.552;2023-09-30T13:51:29;13.65;;;5.57;;
78995;SDS011;68401;47.192;-1.552;2023-09-30T13:53:54;14.05;;;5.50;;
78995;SDS011;68401;47.192;-1.552;2023-09-30T13:56:20;9.18;;;4.78;;
78995;SDS011;68401;47.192;-1.552;2023-09-30T13:58:45;9.70;;;5.50;;
78995;SDS011;68401;47.192;-1.552;2023-09-30T14:01:13;14.00;;;5.85;;
78995;SDS011;68401;47.192;-1.552;2023-09-30T14:03:39;10.35;;;4.57;;
78995;SDS011;68401;47.192;-1.552;2023-09-30T14:06:09;11.43;;;5.50;;
78995;SDS011;68401;47.192;-1.552;2023-09-30T14:08:38;9.80;;;4.88;;
78995;SDS011;68401;47.192;-1.552;2023-09-30T14:11:04;12.32;;;5.05;;
78995;SDS011;68401;47.192;-1.552;2023-09-30T14:13:29;10.52;;;5.10;;
78995;SDS011;68401;47.192;-1.552;2023-09-30T14:15:57;9.25;;;4.43;;
78995;SDS011;68401;47.192;-1.552;2023-09-30T14:18:22;10.30;;;4.72;;
78995;SDS011;68401;47.192;-1.552;2023-09-30T14:20:48;14.05;;;5.50;;
78995;SDS011;68401;47.192;-1.552;2023-09-30T14:23:13;11.95;;;4.93;;
78995;SDS011;68401;47.192;-1.552;2023-09-30T14:25:39;14.40;;;5.32;;
78995;SDS011;68401;47.192;-1.552;2023-09-30T14:28:05;10.30;;;5.13;;
78995;SDS011;68401;47.192;-1.552;2023-09-30T14:30:30;9.25;;;4.72;;
78995;SDS011;68401;47.192;-1.552;2023-09-30T14:32:56;10.10;;;4.82;;
78995;SDS011;68401;47.192;-1.552;2023-09-30T14:35:21;9.90;;;4.40;;
78995;SDS011;68401;47.192;-1.552;2023-09-30T14:37:47;12.07;;;4.95;;
78995;SDS011;68401;47.192;-1.552;2023-09-30T14:40:12;10.07;;;5.03;;
78995;SDS011;68401;47.192;-1.552;2023-09-30T14:42:38;11.63;;;5.00;;
78995;SDS011;68401;47.192;-1.552;2023-09-30T14:45:03;9.73;;;4.30;;
78995;SDS011;68401;47.192;-1.552;2023-09-30T14:47:29;12.02;;;4.78;;
78995;SDS011;68401;47.192;-1.552;2023-09-30T14:49:55;12.55;;;5.70;;
78995;SDS011;68401;47.192;-1.552;2023-09-30T14:52:21;9.55;;;4.90;;
78995;SDS011;68401;47.192;-1.552;2023-09-30T14:54:46;11.57;;;5.05;;
78995;SDS011;68401;47.192;-1.552;2023-09-30T14:57:12;8.95;;;4.43;;
78995;SDS011;68401;47.192;-1.552;2023-09-30T14:59:39;11.88;;;4.45;;
78995;SDS011;68401;47.192;-1.552;2023-09-30T15:02:05;9.63;;;4.32;;
78995;SDS011;68401;47.192;-1.552;2023-09-30T15:04:33;11.15;;;5.38;;